createdAt,value
2017-08-19T00:01:32.873Z,30.55
2017-08-19T00:03:59.046Z,25.98
2017-08-19T00:06:25.263Z,27.05
2017-08-19T00:08:52.394Z,27.37
2017-08-19T00:11:18.615Z,29.85
2017-08-19T00:13:53.314Z,24.73
2017-08-19T00:16:26.353Z,21.52
2017-08-19T00:18:53.571Z,21.63
2017-08-19T00:21:19.791Z,23.02
2017-08-19T00:23:46.148Z,17.55
2017-08-19T00:26:12.275Z,18.30
2017-08-19T00:28:38.504Z,17.05
2017-08-19T00:31:04.782Z,18.45
2017-08-19T00:33:31.827Z,13.32
2017-08-19T00:35:58.785Z,15.98
2017-08-19T00:38:25.087Z,17.00
2017-08-19T00:40:51.570Z,11.60
2017-08-19T00:43:17.765Z,13.82
2017-08-19T00:45:44.103Z,14.43
2017-08-19T00:48:10.273Z,15.30
2017-08-19T00:50:37.484Z,12.93
2017-08-19T00:53:03.626Z,14.27
2017-08-19T00:55:29.686Z,10.27
2017-08-19T00:57:55.738Z,10.30
2017-08-19T01:00:21.818Z,15.68
2017-08-19T01:02:47.841Z,10.23
2017-08-19T01:05:13.906Z,8.88
2017-08-19T01:07:40.273Z,8.67
2017-08-19T01:10:06.298Z,12.77
2017-08-19T01:12:32.359Z,9.55
2017-08-19T01:14:59.177Z,11.67
2017-08-19T01:17:25.201Z,10.40
2017-08-19T01:19:51.238Z,9.55
2017-08-19T01:22:18.290Z,11.40
2017-08-19T01:24:44.326Z,12.10
2017-08-19T01:27:10.366Z,12.70
2017-08-19T01:29:36.639Z,10.98
2017-08-19T01:32:02.655Z,8.43
2017-08-19T01:34:28.690Z,13.80
2017-08-19T01:36:54.800Z,7.53
2017-08-19T01:39:20.830Z,8.45
2017-08-19T01:41:46.889Z,9.98
2017-08-19T01:44:12.946Z,7.72
2017-08-19T01:46:38.962Z,8.65
2017-08-19T01:49:05.022Z,9.88
2017-08-19T01:51:31.058Z,8.27
2017-08-19T01:53:57.823Z,6.78
2017-08-19T01:56:23.847Z,12.60
2017-08-19T01:58:49.874Z,11.10
2017-08-19T02:01:15.899Z,10.70
2017-08-19T02:03:41.966Z,10.07
2017-08-19T02:06:08.010Z,13.30
2017-08-19T02:08:34.786Z,11.25
2017-08-19T02:11:00.829Z,12.77
2017-08-19T02:13:26.879Z,11.68
2017-08-19T02:15:52.903Z,13.50
2017-08-19T02:18:19.718Z,14.38
2017-08-19T02:20:45.746Z,16.35
2017-08-19T02:23:11.781Z,15.05
2017-08-19T02:25:38.766Z,16.35
2017-08-19T02:28:04.804Z,16.08
2017-08-19T02:30:30.822Z,19.23
2017-08-19T02:32:56.870Z,20.33
2017-08-19T02:35:22.973Z,15.73
2017-08-19T02:37:48.999Z,19.37
2017-08-19T02:40:15.030Z,17.90
2017-08-19T02:42:41.086Z,19.67
2017-08-19T02:45:07.910Z,20.65
2017-08-19T02:47:33.951Z,22.25
2017-08-19T02:50:00.008Z,19.00
2017-08-19T02:52:26.071Z,22.55
2017-08-19T02:54:52.087Z,16.95
2017-08-19T02:57:18.151Z,19.77
2017-08-19T02:59:44.222Z,15.43
2017-08-19T03:02:10.248Z,18.43
2017-08-19T03:04:36.296Z,17.37
2017-08-19T03:07:02.471Z,20.30
2017-08-19T03:09:28.493Z,16.42
2017-08-19T03:11:54.512Z,17.25
2017-08-19T03:14:20.577Z,13.23
2017-08-19T03:16:46.614Z,14.40
2017-08-19T03:19:13.361Z,12.43
2017-08-19T03:21:39.713Z,16.73
2017-08-19T03:24:05.799Z,13.63
2017-08-19T03:26:31.834Z,16.12
2017-08-19T03:28:58.006Z,15.02
2017-08-19T03:31:24.036Z,16.12
2017-08-19T03:33:50.094Z,14.80
2017-08-19T03:36:16.876Z,14.47
2017-08-19T03:38:42.919Z,12.13
2017-08-19T03:41:09.325Z,15.40
2017-08-19T03:43:35.369Z,20.52
2017-08-19T03:46:01.437Z,13.95
2017-08-19T03:48:27.501Z,15.90
2017-08-19T03:50:53.542Z,16.33
2017-08-19T03:53:19.563Z,14.38
2017-08-19T03:55:45.628Z,13.95
2017-08-19T03:58:11.664Z,17.03
2017-08-19T04:00:37.706Z,16.10
2017-08-19T04:03:03.790Z,10.60
2017-08-19T04:05:29.821Z,16.80
2017-08-19T04:07:55.871Z,13.05
2017-08-19T04:10:21.964Z,9.88
2017-08-19T04:12:48.299Z,14.40
2017-08-19T04:15:14.316Z,12.40
2017-08-19T04:17:40.659Z,11.98
2017-08-19T04:20:06.692Z,15.90
2017-08-19T04:22:32.723Z,13.00
2017-08-19T04:24:58.751Z,9.18
2017-08-19T04:27:24.770Z,12.80
2017-08-19T04:29:50.818Z,12.73
2017-08-19T04:32:17.590Z,12.63
2017-08-19T04:34:43.642Z,16.10
2017-08-19T04:37:09.737Z,12.20
2017-08-19T04:39:35.766Z,15.85
2017-08-19T04:42:01.790Z,9.90
2017-08-19T04:44:28.143Z,12.90
2017-08-19T04:46:54.227Z,12.85
2017-08-19T04:49:20.263Z,10.90
2017-08-19T04:51:46.447Z,12.07
2017-08-19T04:54:13.209Z,12.65
2017-08-19T04:56:39.248Z,11.90
2017-08-19T04:59:05.604Z,15.05
2017-08-19T05:01:31.674Z,13.32
2017-08-19T05:03:58.461Z,14.80
2017-08-19T05:06:24.543Z,14.10
2017-08-19T05:08:50.575Z,11.63
2017-08-19T05:11:16.597Z,13.27
2017-08-19T05:13:42.974Z,12.55
2017-08-19T05:16:09.001Z,13.00
2017-08-19T05:18:35.030Z,11.12
2017-08-19T05:21:01.099Z,12.27
2017-08-19T05:23:27.131Z,14.35
2017-08-19T05:25:53.154Z,15.80
2017-08-19T05:28:19.214Z,19.77
2017-08-19T05:30:45.258Z,14.85
2017-08-19T05:33:11.304Z,13.00
2017-08-19T05:35:37.399Z,13.87
2017-08-19T05:38:04.170Z,11.65
2017-08-19T05:40:30.201Z,17.35
2017-08-19T05:42:56.522Z,20.98
2017-08-19T05:45:22.562Z,16.50
2017-08-19T05:47:48.620Z,13.10
2017-08-19T05:50:15.429Z,13.77
2017-08-19T05:52:41.442Z,14.05
2017-08-19T05:55:07.486Z,21.50
2017-08-19T05:57:33.550Z,16.10
2017-08-19T05:59:59.588Z,13.20
2017-08-19T06:02:25.669Z,15.63
2017-08-19T06:04:51.698Z,11.05
2017-08-19T06:07:18.478Z,16.33
2017-08-19T06:09:44.516Z,16.90
2017-08-19T06:12:10.554Z,18.60
2017-08-19T06:14:36.733Z,12.13
2017-08-19T06:17:02.774Z,13.45
2017-08-19T06:19:28.851Z,15.63
2017-08-19T06:21:55.680Z,16.10
2017-08-19T06:24:21.737Z,14.35
2017-08-19T06:26:47.772Z,13.30
2017-08-19T06:29:13.848Z,14.75
2017-08-19T06:31:40.637Z,14.30
2017-08-19T06:34:06.663Z,14.75
2017-08-19T06:36:32.694Z,15.02
2017-08-19T06:38:58.858Z,13.75
2017-08-19T06:41:25.614Z,16.92
2017-08-19T06:43:51.653Z,15.18
2017-08-19T06:46:17.998Z,20.15
2017-08-19T06:48:44.346Z,18.23
2017-08-19T06:51:10.371Z,17.45
2017-08-19T06:53:36.526Z,17.62
2017-08-19T06:56:03.303Z,14.20
2017-08-19T06:58:29.347Z,13.88
2017-08-19T07:00:55.399Z,14.73
2017-08-19T07:03:21.422Z,16.48
2017-08-19T07:05:47.437Z,17.10
2017-08-19T07:08:13.517Z,13.68
2017-08-19T07:10:39.547Z,15.73
2017-08-19T07:13:05.587Z,13.45
2017-08-19T07:15:31.979Z,18.67
2017-08-19T07:17:58.000Z,17.27
2017-08-19T07:20:24.092Z,17.10
2017-08-19T07:22:51.271Z,15.73
2017-08-19T07:25:17.322Z,16.05
2017-08-19T07:27:43.382Z,16.55
2017-08-19T07:30:10.170Z,17.97
2017-08-19T07:32:36.195Z,16.20
2017-08-19T07:35:02.236Z,16.10
2017-08-19T07:37:28.328Z,13.07
2017-08-19T07:39:54.351Z,11.17
2017-08-19T07:42:20.373Z,14.75
2017-08-19T07:44:46.422Z,16.70
2017-08-19T07:47:12.467Z,14.52
2017-08-19T07:49:38.899Z,11.82
2017-08-19T07:52:05.774Z,15.23
2017-08-19T07:54:31.791Z,14.55
2017-08-19T07:56:58.247Z,15.93
2017-08-19T07:59:24.307Z,16.00
2017-08-19T08:01:50.357Z,16.05
2017-08-19T08:04:16.716Z,14.95
2017-08-19T08:06:42.755Z,15.10
2017-08-19T08:09:08.802Z,19.60
2017-08-19T08:11:34.859Z,15.27
2017-08-19T08:14:00.879Z,15.07
2017-08-19T08:16:26.908Z,15.82
2017-08-19T08:18:53.246Z,14.90
2017-08-19T08:21:19.272Z,14.77
2017-08-19T08:23:45.286Z,20.43
2017-08-19T08:26:11.370Z,14.65
2017-08-19T08:28:38.148Z,12.30
2017-08-19T08:31:04.175Z,16.10
2017-08-19T08:33:30.220Z,15.13
2017-08-19T08:35:56.290Z,14.52
2017-08-19T08:38:22.338Z,13.80
2017-08-19T08:40:48.366Z,13.93
2017-08-19T08:43:14.773Z,11.43
2017-08-19T08:45:40.821Z,15.40
2017-08-19T08:48:06.858Z,15.57
2017-08-19T08:50:32.898Z,14.23
2017-08-19T08:52:59.805Z,14.93
2017-08-19T08:55:25.859Z,11.93
2017-08-19T08:57:51.899Z,14.93
2017-08-19T09:00:18.678Z,11.65
2017-08-19T09:02:44.699Z,14.25
2017-08-19T09:05:10.758Z,12.77
2017-08-19T09:07:36.818Z,15.43
2017-08-19T09:10:03.101Z,16.10
2017-08-19T09:12:29.127Z,13.98
2017-08-19T09:14:55.190Z,12.90
2017-08-19T09:17:22.024Z,10.50
2017-08-19T09:19:48.077Z,16.98
2017-08-19T09:22:14.301Z,14.48
2017-08-19T09:24:40.387Z,22.30
2017-08-19T09:27:07.181Z,25.45
2017-08-19T09:29:33.205Z,35.80
2017-08-19T09:31:59.232Z,26.27
2017-08-19T09:34:25.607Z,17.08
2017-08-19T09:36:51.683Z,18.55
2017-08-19T09:39:17.724Z,17.65
2017-08-19T09:41:43.933Z,14.13
2017-08-19T09:44:09.962Z,11.23
2017-08-19T09:46:35.987Z,12.23
2017-08-19T09:49:02.030Z,16.77
2017-08-19T09:51:28.067Z,15.55
2017-08-19T09:53:55.139Z,11.53
2017-08-19T09:56:21.208Z,11.32
2017-08-19T09:58:48.026Z,10.48
2017-08-19T10:01:14.058Z,11.45
2017-08-19T10:03:40.366Z,14.57
2017-08-19T10:06:06.394Z,11.20
2017-08-19T10:08:39.620Z,7.93
2017-08-19T10:11:18.022Z,14.45
2017-08-19T10:13:44.081Z,13.23
2017-08-19T10:16:10.154Z,11.90
2017-08-19T10:18:36.218Z,11.45
2017-08-19T10:21:02.974Z,11.48
2017-08-19T10:23:28.995Z,12.30
2017-08-19T10:25:55.017Z,14.65
2017-08-19T10:28:21.075Z,14.10
2017-08-19T10:30:47.102Z,12.88
2017-08-19T10:33:13.130Z,16.33
2017-08-19T10:35:39.182Z,17.95
2017-08-19T10:38:06.023Z,17.00
2017-08-19T10:40:32.814Z,12.98
2017-08-19T10:42:58.851Z,12.82
2017-08-19T10:45:24.862Z,15.47
2017-08-19T10:47:50.884Z,15.15
2017-08-19T10:50:16.936Z,16.50
2017-08-19T10:52:42.956Z,13.18
2017-08-19T10:55:09.005Z,14.27
2017-08-19T10:57:36.084Z,16.45
2017-08-19T11:00:02.114Z,13.00
2017-08-19T11:02:28.132Z,14.57
2017-08-19T11:04:54.458Z,13.57
2017-08-19T11:07:20.497Z,15.95
2017-08-19T11:09:46.514Z,11.15
2017-08-19T11:12:12.546Z,11.07
2017-08-19T11:14:38.567Z,10.80
2017-08-19T11:17:04.590Z,11.85
2017-08-19T11:19:31.356Z,13.20
2017-08-19T11:21:57.376Z,12.87
2017-08-19T11:24:23.405Z,12.98
2017-08-19T11:26:50.176Z,14.40
2017-08-19T11:29:16.211Z,14.05
2017-08-19T11:31:42.429Z,13.25
2017-08-19T11:34:08.451Z,15.50
2017-08-19T11:36:34.473Z,16.08
2017-08-19T11:39:01.837Z,10.45
2017-08-19T11:41:27.934Z,14.75
2017-08-19T11:43:54.022Z,15.77
2017-08-19T11:46:20.463Z,12.95
2017-08-19T11:48:47.250Z,13.73
2017-08-19T11:51:13.279Z,15.52
2017-08-19T11:53:39.350Z,14.00
2017-08-19T11:56:06.135Z,12.45
2017-08-19T11:58:32.163Z,14.50
2017-08-19T12:00:58.579Z,10.13
2017-08-19T12:03:24.601Z,11.50
2017-08-19T12:05:50.626Z,8.88
2017-08-19T12:08:16.959Z,9.20
2017-08-19T12:10:43.029Z,8.13
2017-08-19T12:13:09.035Z,8.47
2017-08-19T12:15:35.329Z,10.02
2017-08-19T12:18:01.350Z,10.73
2017-08-19T12:20:27.368Z,11.80
2017-08-19T12:22:53.439Z,8.73
2017-08-19T12:25:19.478Z,11.67
2017-08-19T12:27:46.509Z,13.48
2017-08-19T12:30:12.782Z,13.23
2017-08-19T12:32:38.814Z,9.07
2017-08-19T12:35:04.928Z,10.73
2017-08-19T12:37:30.963Z,12.75
2017-08-19T12:39:56.981Z,9.77
2017-08-19T12:42:23.034Z,10.15
2017-08-19T12:44:49.063Z,26.48
2017-08-19T12:47:15.105Z,120.62
2017-08-19T12:49:42.086Z,11.60
2017-08-19T12:52:08.137Z,14.02
2017-08-19T12:54:34.173Z,13.05
2017-08-19T12:57:01.133Z,9.30
2017-08-19T12:59:27.925Z,15.32
2017-08-19T13:01:53.963Z,12.18
2017-08-19T13:04:20.014Z,10.87
2017-08-19T13:06:46.795Z,11.77
2017-08-19T13:09:12.818Z,11.10
2017-08-19T13:11:39.144Z,12.37
2017-08-19T13:14:05.167Z,11.63
2017-08-19T13:16:31.215Z,11.23
2017-08-19T13:18:57.252Z,12.13
2017-08-19T13:21:24.163Z,10.70
2017-08-19T13:23:50.212Z,14.48
2017-08-19T13:26:16.515Z,8.27
2017-08-19T13:28:42.547Z,11.43
2017-08-19T13:31:08.591Z,11.00
2017-08-19T13:33:35.696Z,9.57
2017-08-19T13:36:01.718Z,7.93
2017-08-19T13:38:27.734Z,7.93
2017-08-19T13:40:53.968Z,9.55
2017-08-19T13:43:20.022Z,8.88
2017-08-19T13:45:46.054Z,10.40
2017-08-19T13:48:12.082Z,6.62
2017-08-19T13:50:38.318Z,8.02
2017-08-19T13:53:04.372Z,6.00
2017-08-19T13:55:30.634Z,9.53
2017-08-19T13:57:56.734Z,6.53
2017-08-19T14:00:22.753Z,9.57
2017-08-19T14:02:48.920Z,9.65
2017-08-19T14:05:14.988Z,6.70
2017-08-19T14:07:41.006Z,10.52
2017-08-19T14:10:07.069Z,8.38
2017-08-19T14:12:33.465Z,7.40
2017-08-19T14:14:59.498Z,7.50
2017-08-19T14:17:25.522Z,8.80
2017-08-19T14:19:51.822Z,10.15
2017-08-19T14:22:17.847Z,8.52
2017-08-19T14:24:43.901Z,8.40
2017-08-19T14:27:10.029Z,7.78
2017-08-19T14:29:36.273Z,9.57
2017-08-19T14:32:02.931Z,10.23
2017-08-19T14:34:29.158Z,12.57
2017-08-19T14:36:56.242Z,8.95
2017-08-19T14:39:22.552Z,8.73
2017-08-19T14:41:48.623Z,10.48
2017-08-19T14:44:14.706Z,7.70
2017-08-19T14:46:40.759Z,10.57
2017-08-19T14:49:06.800Z,9.80
2017-08-19T14:51:33.149Z,10.15
2017-08-19T14:54:00.945Z,9.05
2017-08-19T14:56:26.983Z,9.02
2017-08-19T14:58:53.001Z,10.13
2017-08-19T15:01:19.038Z,9.57
2017-08-19T15:03:45.146Z,7.78
2017-08-19T15:06:11.230Z,10.13
2017-08-19T15:08:37.999Z,10.07
2017-08-19T15:11:04.029Z,10.45
2017-08-19T15:13:30.096Z,8.95
2017-08-19T15:15:56.133Z,7.80
2017-08-19T15:18:22.909Z,7.10
2017-08-19T15:20:49.068Z,8.75
2017-08-19T15:23:16.025Z,5.55
2017-08-19T15:25:42.049Z,6.57
2017-08-19T15:28:08.820Z,8.07
2017-08-19T15:30:34.871Z,11.52
2017-08-19T15:33:00.908Z,9.32
2017-08-19T15:35:26.943Z,7.90
2017-08-19T15:37:53.218Z,7.07
2017-08-19T15:40:19.251Z,8.05
2017-08-19T15:42:45.278Z,8.40
2017-08-19T15:45:11.366Z,9.40
2017-08-19T15:47:37.405Z,8.07
2017-08-19T15:50:03.439Z,8.48
2017-08-19T15:52:29.490Z,9.55
2017-08-19T15:54:55.526Z,9.70
2017-08-19T15:57:22.335Z,6.45
2017-08-19T15:59:48.535Z,6.07
2017-08-19T16:02:14.562Z,5.40
2017-08-19T16:04:40.609Z,5.17
2017-08-19T16:07:06.838Z,5.55
2017-08-19T16:09:32.934Z,7.70
2017-08-19T16:11:58.952Z,5.85
2017-08-19T16:14:25.006Z,4.22
2017-08-19T16:16:51.097Z,6.18
2017-08-19T16:19:17.147Z,6.07
2017-08-19T16:21:43.470Z,5.00
2017-08-19T16:24:09.502Z,2.70
2017-08-19T16:26:35.563Z,4.55
2017-08-19T16:29:02.534Z,4.82
2017-08-19T16:31:28.538Z,5.45
2017-08-19T16:33:54.590Z,5.93
2017-08-19T16:36:20.938Z,5.15
2017-08-19T16:38:46.960Z,4.83
2017-08-19T16:41:12.978Z,6.45
2017-08-19T16:43:39.826Z,5.97
2017-08-19T16:46:05.889Z,21.17
2017-08-19T16:48:32.653Z,9.60
2017-08-19T16:50:59.029Z,68.73
2017-08-19T16:53:25.093Z,42.33
2017-08-19T16:55:51.699Z,24.58
2017-08-19T16:58:19.062Z,9.27
2017-08-19T17:00:45.839Z,10.45
2017-08-19T17:03:12.167Z,8.60
2017-08-19T17:05:38.208Z,10.43
2017-08-19T17:08:04.227Z,8.65
2017-08-19T17:10:30.313Z,7.28
2017-08-19T17:12:56.342Z,9.15
2017-08-19T17:15:22.394Z,8.23
2017-08-19T17:17:48.448Z,8.93
2017-08-19T17:20:15.249Z,7.47
2017-08-19T17:22:41.614Z,8.82
2017-08-19T17:25:07.786Z,9.40
2017-08-19T17:27:33.858Z,9.65
2017-08-19T17:29:59.882Z,37.40
2017-08-19T17:32:25.927Z,23.15
2017-08-19T17:34:52.738Z,4.47
2017-08-19T17:37:19.414Z,4.00
2017-08-19T17:39:45.802Z,4.87
2017-08-19T17:42:11.838Z,5.87
2017-08-19T17:44:37.899Z,4.55
2017-08-19T17:47:04.047Z,22.42
2017-08-19T17:49:30.107Z,13.70
2017-08-19T17:51:56.887Z,6.82
2017-08-19T17:54:22.990Z,7.65
2017-08-19T17:56:49.959Z,8.98
2017-08-19T17:59:16.006Z,10.50
2017-08-19T18:01:42.135Z,7.07
2017-08-19T18:04:08.159Z,6.75
2017-08-19T18:06:34.186Z,8.05
2017-08-19T18:09:00.495Z,5.62
2017-08-19T18:11:26.530Z,4.25
2017-08-19T18:13:52.590Z,4.50
2017-08-19T18:16:19.420Z,4.93
2017-08-19T18:18:45.447Z,6.80
2017-08-19T18:21:12.221Z,6.80
2017-08-19T18:23:38.558Z,5.25
2017-08-19T18:26:04.574Z,6.07
2017-08-19T18:28:30.604Z,5.10
2017-08-19T18:30:56.708Z,5.75
2017-08-19T18:33:22.774Z,5.50
2017-08-19T18:35:48.824Z,6.32
2017-08-19T18:38:15.816Z,5.37
2017-08-19T18:40:41.858Z,5.45
2017-08-19T18:43:07.901Z,10.40
2017-08-19T18:45:33.962Z,5.80
2017-08-19T18:48:00.006Z,4.78
2017-08-19T18:50:26.170Z,6.85
2017-08-19T18:52:52.976Z,5.25
2017-08-19T18:55:19.016Z,7.85
2017-08-19T18:57:45.113Z,6.70
2017-08-19T19:00:11.227Z,6.93
2017-08-19T19:02:37.266Z,8.48
2017-08-19T19:05:03.325Z,8.97
2017-08-19T19:07:29.450Z,7.22
2017-08-19T19:09:55.534Z,10.07
2017-08-19T19:12:21.554Z,8.55
2017-08-19T19:14:47.760Z,7.30
2017-08-19T19:17:13.859Z,7.65
2017-08-19T19:19:41.031Z,12.15
2017-08-19T19:22:07.352Z,10.55
2017-08-19T19:24:33.671Z,10.50
2017-08-19T19:27:00.447Z,6.90
2017-08-19T19:29:26.564Z,8.85
2017-08-19T19:31:52.631Z,8.38
2017-08-19T19:34:19.056Z,10.70
2017-08-19T19:36:45.968Z,7.95
2017-08-19T19:39:12.130Z,7.07
2017-08-19T19:41:38.504Z,8.75
2017-08-19T19:44:04.838Z,7.93
2017-08-19T19:46:30.975Z,5.40
2017-08-19T19:48:57.100Z,8.88
2017-08-19T19:51:23.290Z,11.82
2017-08-19T19:53:50.160Z,10.40
2017-08-19T19:56:16.564Z,9.85
2017-08-19T19:58:42.831Z,8.07
2017-08-19T20:01:08.920Z,8.90
2017-08-19T20:03:35.052Z,10.55
2017-08-19T20:06:01.108Z,7.68
2017-08-19T20:08:27.171Z,7.55
2017-08-19T20:10:53.948Z,7.32
2017-08-19T20:13:19.983Z,7.82
2017-08-19T20:15:46.046Z,9.70
2017-08-19T20:18:12.812Z,6.68
2017-08-19T20:20:38.862Z,7.78
2017-08-19T20:23:05.276Z,8.57
2017-08-19T20:25:31.365Z,9.27
2017-08-19T20:27:58.157Z,9.55
2017-08-19T20:30:24.222Z,8.83
2017-08-19T20:32:51.027Z,11.07
2017-08-19T20:35:17.095Z,9.80
2017-08-19T20:37:43.860Z,7.75
2017-08-19T20:40:09.881Z,14.48
2017-08-19T20:42:35.957Z,7.53
2017-08-19T20:45:02.060Z,21.60
2017-08-19T20:47:28.092Z,79.97
2017-08-19T20:49:54.178Z,71.03
2017-08-19T20:52:20.220Z,18.83
2017-08-19T20:54:46.266Z,111.93
2017-08-19T20:57:12.315Z,71.75
2017-08-19T20:59:39.111Z,41.93
2017-08-19T21:02:05.211Z,112.75
2017-08-19T21:04:31.291Z,53.72
2017-08-19T21:06:58.066Z,96.20
2017-08-19T21:09:24.130Z,69.95
2017-08-19T21:11:50.171Z,131.07
2017-08-19T21:14:16.977Z,128.60
2017-08-19T21:16:43.063Z,9.75
2017-08-19T21:19:09.103Z,9.80
2017-08-19T21:21:35.150Z,8.88
2017-08-19T21:24:01.219Z,7.93
2017-08-19T21:26:27.283Z,9.15
2017-08-19T21:28:53.394Z,9.03
2017-08-19T21:31:19.485Z,9.63
2017-08-19T21:33:45.506Z,8.25
2017-08-19T21:36:11.545Z,10.20
2017-08-19T21:38:37.620Z,7.45
2017-08-19T21:41:03.658Z,7.50
2017-08-19T21:43:30.428Z,11.45
2017-08-19T21:45:56.659Z,13.40
2017-08-19T21:48:22.711Z,12.73
2017-08-19T21:50:48.770Z,10.40
2017-08-19T21:53:15.846Z,10.18
2017-08-19T21:55:41.892Z,10.15
2017-08-19T21:58:08.066Z,16.70
2017-08-19T22:00:34.101Z,10.30
2017-08-19T22:03:00.340Z,12.68
2017-08-19T22:05:26.623Z,15.55
2017-08-19T22:07:52.648Z,9.80
2017-08-19T22:10:18.826Z,28.73
2017-08-19T22:12:44.972Z,34.45
2017-08-19T22:15:11.219Z,14.30
2017-08-19T22:17:38.183Z,10.13
2017-08-19T22:20:05.133Z,10.53
2017-08-19T22:22:31.382Z,15.63
2017-08-19T22:24:57.636Z,12.93
2017-08-19T22:27:24.766Z,13.10
2017-08-19T22:29:51.064Z,10.27
2017-08-19T22:32:17.366Z,10.43
2017-08-19T22:34:45.148Z,9.90
2017-08-19T22:37:11.323Z,8.68
2017-08-19T22:39:37.454Z,9.60
2017-08-19T22:42:03.716Z,9.23
2017-08-19T22:44:30.705Z,8.63
2017-08-19T22:46:56.895Z,9.37
2017-08-19T22:49:23.080Z,8.20
2017-08-19T22:51:49.259Z,6.35
2017-08-19T22:54:15.502Z,12.40
2017-08-19T22:56:41.582Z,13.60
2017-08-19T22:59:08.336Z,6.65
2017-08-19T23:01:35.422Z,6.28
2017-08-19T23:04:01.500Z,8.75
2017-08-19T23:06:27.535Z,9.45
2017-08-19T23:08:53.623Z,7.12
2017-08-19T23:11:20.608Z,11.77
2017-08-19T23:13:46.646Z,10.32
2017-08-19T23:16:12.666Z,12.52
2017-08-19T23:18:38.762Z,10.93
2017-08-19T23:21:04.832Z,11.90
2017-08-19T23:23:31.168Z,7.65
2017-08-19T23:25:57.227Z,10.02
2017-08-19T23:28:23.343Z,7.20
2017-08-19T23:30:50.115Z,9.93
2017-08-19T23:33:16.151Z,9.77
2017-08-19T23:35:42.217Z,10.45
2017-08-19T23:38:08.978Z,8.83
2017-08-19T23:40:35.042Z,6.65
2017-08-19T23:43:01.063Z,8.17
2017-08-19T23:45:27.111Z,9.05
2017-08-19T23:47:53.175Z,10.10
2017-08-19T23:50:19.216Z,10.77
2017-08-19T23:52:45.230Z,8.65
2017-08-19T23:55:11.318Z,10.65
2017-08-19T23:57:37.402Z,11.20
